createdAt,value
2018-08-12T00:00:29.416Z,19.00
2018-08-12T00:02:59.533Z,19.00
2018-08-12T00:05:28.549Z,18.90
2018-08-12T00:07:57.650Z,18.90
2018-08-12T00:10:26.868Z,18.90
2018-08-12T00:12:55.976Z,19.00
2018-08-12T00:15:25.007Z,18.90
2018-08-12T00:17:54.032Z,18.90
2018-08-12T00:20:23.773Z,18.90
2018-08-12T00:22:52.833Z,18.80
2018-08-12T00:25:23.293Z,18.90
2018-08-12T00:27:52.380Z,18.80
2018-08-12T00:30:23.868Z,18.70
2018-08-12T00:32:52.967Z,18.70
2018-08-12T00:35:22.023Z,18.70
2018-08-12T00:37:51.119Z,18.60
2018-08-12T00:40:20.133Z,18.60
2018-08-12T00:42:50.145Z,18.60
2018-08-12T00:45:20.929Z,18.70
2018-08-12T00:47:50.431Z,18.70
2018-08-12T00:50:20.304Z,18.70
2018-08-12T00:52:49.396Z,18.60
2018-08-12T00:55:18.760Z,18.60
2018-08-12T00:57:48.532Z,18.60
2018-08-12T01:00:19.855Z,18.60
2018-08-12T01:02:49.024Z,18.50
2018-08-12T01:05:18.980Z,18.50
2018-08-12T01:07:49.040Z,18.40
2018-08-12T01:10:18.724Z,18.40
2018-08-12T01:12:47.791Z,18.40
2018-08-12T01:15:19.783Z,18.40
2018-08-12T01:17:48.899Z,18.40
2018-08-12T01:20:22.737Z,18.40
2018-08-12T01:22:51.826Z,18.40
2018-08-12T01:25:21.385Z,18.30
2018-08-12T01:27:50.434Z,18.30
2018-08-12T01:30:20.878Z,18.20
2018-08-12T01:32:50.148Z,18.20
2018-08-12T01:35:19.509Z,18.10
2018-08-12T01:37:49.515Z,18.10
2018-08-12T01:40:19.564Z,18.20
2018-08-12T01:42:48.585Z,18.20
2018-08-12T01:45:19.279Z,18.10
2018-08-12T01:47:48.428Z,18.20
2018-08-12T01:50:18.965Z,18.20
2018-08-12T01:52:47.963Z,18.10
2018-08-12T01:55:17.237Z,18.10
2018-08-12T01:57:46.279Z,18.20
2018-08-12T02:00:17.703Z,18.20
2018-08-12T02:02:47.428Z,18.10
2018-08-12T02:05:17.112Z,18.10
2018-08-12T02:07:46.162Z,18.10
2018-08-12T02:10:15.284Z,18.00
2018-08-12T02:12:44.437Z,17.90
2018-08-12T02:15:13.524Z,17.90
2018-08-12T02:34:43.973Z,17.60
2018-08-12T02:37:13.033Z,18.00
2018-08-12T02:39:42.035Z,18.10
2018-08-12T02:42:11.094Z,18.00
2018-08-12T02:44:40.078Z,18.00
2018-08-12T02:47:09.121Z,17.90
2018-08-12T02:49:38.119Z,17.90
2018-08-12T02:52:07.205Z,17.90
2018-08-12T02:54:36.205Z,18.00
2018-08-12T02:57:05.246Z,18.00
2018-08-12T02:59:34.284Z,17.90
2018-08-12T03:02:03.325Z,17.90
2018-08-12T03:04:32.300Z,17.80
2018-08-12T03:07:01.365Z,17.70
2018-08-12T03:09:30.585Z,17.60
2018-08-12T03:11:59.878Z,17.60
2018-08-12T03:14:28.840Z,17.70
2018-08-12T03:16:57.895Z,17.60
2018-08-12T03:19:26.991Z,17.50
2018-08-12T03:21:56.046Z,17.50
2018-08-12T03:24:25.172Z,17.60
2018-08-12T03:26:54.182Z,17.70
2018-08-12T03:29:23.196Z,17.60
2018-08-12T03:31:52.244Z,17.50
2018-08-12T03:34:21.288Z,17.50
2018-08-12T03:36:50.332Z,17.60
2018-08-12T03:39:19.320Z,17.60
2018-08-12T03:41:48.280Z,17.60
2018-08-12T03:44:17.367Z,17.60
2018-08-12T03:46:46.472Z,17.70
2018-08-12T03:49:15.574Z,17.70
2018-08-12T03:51:45.307Z,17.70
2018-08-12T03:54:14.300Z,17.60
2018-08-12T03:56:43.309Z,17.60
2018-08-12T03:59:12.300Z,17.60
2018-08-12T04:01:41.345Z,17.60
2018-08-12T04:04:10.372Z,17.60
2018-08-12T04:06:39.397Z,17.50
2018-08-12T04:09:09.768Z,17.40
2018-08-12T04:11:38.773Z,17.40
2018-08-12T04:14:07.808Z,17.40
2018-08-12T04:16:36.873Z,17.30
2018-08-12T04:19:06.379Z,17.30
2018-08-12T04:21:35.321Z,17.30
2018-08-12T04:24:04.380Z,17.30
2018-08-12T04:26:33.486Z,17.30
2018-08-12T04:29:02.517Z,17.40
2018-08-12T04:31:31.520Z,17.50
2018-08-12T04:34:01.054Z,17.50
2018-08-12T04:36:30.081Z,17.60
2018-08-12T04:38:59.114Z,17.60
2018-08-12T04:41:28.123Z,17.60
2018-08-12T04:43:57.149Z,17.60
2018-08-12T04:46:26.763Z,17.60
2018-08-12T04:48:55.779Z,17.60
2018-08-12T04:51:25.473Z,17.60
2018-08-12T04:53:54.511Z,17.50
2018-08-12T04:56:23.529Z,17.60
2018-08-12T04:58:52.649Z,17.60
2018-08-12T05:01:21.749Z,17.50
2018-08-12T05:03:50.948Z,17.50
2018-08-12T05:06:20.075Z,17.50
2018-08-12T05:08:49.136Z,17.50
2018-08-12T05:11:18.545Z,17.50
2018-08-12T05:13:47.542Z,17.50
2018-08-12T05:16:16.608Z,17.60
2018-08-12T05:18:45.757Z,17.60
2018-08-12T05:21:14.824Z,17.70
2018-08-12T05:23:43.829Z,17.60
2018-08-12T05:26:12.860Z,17.70
2018-08-12T05:28:41.923Z,17.60
2018-08-12T05:31:10.998Z,17.60
2018-08-12T05:33:40.063Z,17.70
2018-08-12T05:36:09.148Z,17.80
2018-08-12T05:38:38.919Z,17.80
2018-08-12T05:41:09.700Z,18.00
2018-08-12T05:43:38.700Z,18.10
2018-08-12T05:46:07.829Z,18.20
2018-08-12T05:48:36.866Z,18.30
2018-08-12T05:51:05.894Z,18.30
2018-08-12T05:53:34.943Z,18.40
2018-08-12T05:56:04.104Z,18.40
2018-08-12T05:58:33.097Z,18.30
2018-08-12T06:01:02.149Z,18.40
2018-08-12T06:03:31.221Z,18.40
2018-08-12T06:06:00.289Z,18.50
2018-08-12T06:08:29.324Z,18.40
2018-08-12T06:10:58.491Z,18.50
2018-08-12T06:13:27.535Z,18.50
2018-08-12T06:15:56.568Z,18.60
2018-08-12T06:18:25.564Z,18.60
2018-08-12T06:20:54.585Z,18.50
2018-08-12T06:23:23.679Z,18.60
2018-08-12T06:25:52.641Z,18.70
2018-08-12T06:28:21.692Z,18.80
2018-08-12T06:30:51.713Z,18.80
2018-08-12T06:33:21.039Z,18.90
2018-08-12T06:35:50.062Z,19.00
2018-08-12T06:38:19.121Z,18.90
2018-08-12T06:40:48.196Z,18.90
2018-08-12T06:43:17.271Z,18.90
2018-08-12T06:45:46.304Z,18.90
2018-08-12T06:48:15.465Z,19.00
2018-08-12T06:50:44.516Z,19.10
2018-08-12T06:53:13.553Z,19.20
2018-08-12T06:55:42.613Z,19.30
2018-08-12T06:58:12.296Z,19.40
2018-08-12T07:00:41.339Z,19.50
2018-08-12T07:03:10.415Z,19.60
2018-08-12T07:05:39.633Z,19.80
2018-08-12T07:08:08.740Z,19.90
2018-08-12T07:10:37.776Z,19.90
2018-08-12T07:13:06.768Z,19.90
2018-08-12T07:15:35.879Z,20.00
2018-08-12T07:18:05.133Z,20.10
2018-08-12T07:20:34.141Z,20.20
2018-08-12T07:23:03.255Z,20.30
2018-08-12T07:25:32.314Z,20.40
2018-08-12T07:28:01.372Z,20.40
2018-08-12T07:30:30.420Z,20.40
2018-08-12T07:33:00.157Z,20.50
2018-08-12T07:35:29.244Z,20.70
2018-08-12T07:37:58.629Z,20.90
2018-08-12T07:40:27.733Z,21.10
2018-08-12T07:42:56.771Z,21.30
2018-08-12T07:45:25.805Z,21.50
2018-08-12T07:47:54.895Z,21.70
2018-08-12T07:50:23.965Z,21.60
2018-08-12T07:52:52.954Z,21.40
2018-08-12T07:55:22.040Z,21.30
2018-08-12T07:57:51.603Z,21.30
2018-08-12T08:00:21.352Z,21.20
2018-08-12T08:02:50.397Z,21.20
2018-08-12T08:05:20.245Z,21.40
2018-08-12T08:07:49.342Z,21.60
2018-08-12T08:10:18.451Z,22.00
2018-08-12T08:12:48.225Z,22.20
2018-08-12T08:15:19.791Z,22.40
2018-08-12T08:17:49.253Z,22.70
2018-08-12T08:20:18.313Z,22.80
2018-08-12T08:22:47.403Z,22.90
2018-08-12T08:25:16.500Z,22.90
2018-08-12T08:27:45.588Z,23.10
2018-08-12T08:30:16.461Z,23.30
2018-08-12T08:32:45.672Z,23.40
2018-08-12T08:35:14.805Z,23.50
2018-08-12T08:37:44.072Z,23.70
2018-08-12T08:40:14.882Z,23.90
2018-08-12T08:42:44.396Z,23.90
2018-08-12T08:45:15.939Z,23.90
2018-08-12T08:47:47.053Z,24.10
2018-08-12T08:50:17.096Z,24.20
2018-08-12T08:52:46.220Z,24.20
2018-08-12T08:55:15.897Z,24.60
2018-08-12T08:57:45.696Z,25.00
2018-08-12T09:00:16.727Z,25.40
2018-08-12T09:02:47.387Z,25.40
2018-08-12T09:05:16.993Z,25.70
2018-08-12T09:07:46.299Z,26.00
2018-08-12T09:10:17.150Z,26.60
2018-08-12T09:12:46.253Z,27.30
2018-08-12T09:15:17.016Z,28.00
2018-08-12T09:17:46.702Z,28.70
2018-08-12T09:20:17.704Z,29.10
2018-08-12T09:22:46.795Z,29.50
2018-08-12T09:25:16.177Z,30.10
2018-08-12T09:27:45.266Z,30.70
2018-08-12T09:30:18.581Z,30.90
2018-08-12T09:32:48.208Z,31.90
2018-08-12T09:35:18.090Z,33.20
2018-08-12T09:37:47.148Z,34.10
2018-08-12T09:40:17.539Z,35.10
2018-08-12T09:42:48.102Z,35.80
2018-08-12T09:45:19.085Z,36.80
2018-08-12T09:47:48.189Z,37.90
2018-08-12T09:50:18.545Z,39.10
2018-08-12T09:52:48.728Z,39.50
2018-08-12T09:55:18.496Z,39.80
2018-08-12T09:57:47.582Z,40.50
2018-08-12T10:00:23.067Z,40.80
2018-08-12T10:02:53.763Z,40.60
2018-08-12T10:05:23.305Z,41.50
2018-08-12T10:07:52.549Z,42.10
2018-08-12T10:10:21.705Z,42.40
2018-08-12T10:12:50.816Z,43.20
2018-08-12T10:15:19.918Z,43.40
2018-08-12T10:17:52.411Z,43.30
2018-08-12T10:20:21.557Z,42.30
2018-08-12T10:22:50.705Z,41.70
2018-08-12T10:25:21.176Z,41.70
2018-08-12T10:27:50.823Z,41.40
2018-08-12T10:30:20.546Z,41.80
2018-08-12T10:32:49.661Z,42.10
2018-08-12T10:35:18.909Z,42.40
2018-08-12T10:37:47.988Z,43.40
2018-08-12T10:40:19.719Z,43.80
2018-08-12T10:42:49.718Z,44.00
2018-08-12T10:45:18.777Z,44.00
2018-08-12T10:47:47.950Z,43.90
2018-08-12T10:50:18.353Z,43.70
2018-08-12T10:52:48.359Z,43.00
2018-08-12T10:55:19.064Z,42.40
2018-08-12T10:57:48.184Z,42.60
2018-08-12T11:00:21.540Z,42.90
2018-08-12T11:02:50.734Z,43.40
2018-08-12T11:05:19.748Z,43.20
2018-08-12T11:07:51.872Z,43.40
2018-08-12T11:10:21.040Z,43.60
2018-08-12T11:12:50.923Z,43.80
2018-08-12T11:15:19.905Z,44.80
2018-08-12T11:17:49.224Z,46.50
2018-08-12T11:20:19.073Z,46.90
2018-08-12T11:22:48.072Z,48.00
2018-08-12T11:25:17.147Z,48.70
2018-08-12T11:27:48.153Z,49.40
2018-08-12T11:30:18.384Z,48.80
2018-08-12T11:32:47.513Z,48.00
2018-08-12T11:35:17.716Z,47.80
2018-08-12T11:37:46.915Z,47.40
2018-08-12T11:40:16.422Z,47.90
2018-08-12T11:42:45.520Z,48.00
2018-08-12T11:45:17.136Z,47.40
2018-08-12T11:47:47.156Z,47.10
2018-08-12T11:50:17.163Z,45.40
2018-08-12T11:52:48.253Z,44.70
2018-08-12T11:55:18.720Z,43.60
2018-08-12T11:57:47.897Z,41.50
2018-08-12T12:00:18.700Z,41.70
2018-08-12T12:02:49.254Z,42.20
2018-08-12T12:05:18.389Z,42.00
2018-08-12T12:07:47.480Z,41.70
2018-08-12T12:10:18.502Z,41.90
2018-08-12T12:12:48.827Z,41.20
2018-08-12T12:15:18.209Z,39.50
2018-08-12T12:17:47.924Z,38.00
2018-08-12T12:20:18.193Z,37.20
2018-08-12T12:22:47.853Z,37.10
2018-08-12T12:25:18.372Z,36.40
2018-08-12T12:27:47.465Z,35.40
2018-08-12T12:30:18.025Z,33.90
2018-08-12T12:32:48.727Z,32.60
2018-08-12T12:35:17.924Z,32.00
2018-08-12T12:37:47.833Z,31.40
2018-08-12T12:40:17.970Z,31.20
2018-08-12T12:42:47.543Z,30.90
2018-08-12T12:45:16.880Z,31.00
2018-08-12T12:47:46.577Z,30.70
2018-08-12T12:50:18.373Z,30.40
2018-08-12T12:52:48.679Z,29.60
2018-08-12T12:55:18.536Z,29.40
2018-08-12T12:57:47.632Z,29.20
2018-08-12T13:00:18.425Z,29.10
2018-08-12T13:02:47.880Z,28.80
2018-08-12T13:05:18.130Z,28.70
2018-08-12T13:07:48.172Z,28.70
2018-08-12T13:10:18.145Z,28.80
2018-08-12T13:12:47.274Z,29.20
2018-08-12T13:15:17.186Z,29.40
2018-08-12T13:17:46.312Z,29.50
2018-08-12T13:20:18.478Z,29.50
2018-08-12T13:22:48.600Z,29.20
2018-08-12T13:25:19.523Z,29.10
2018-08-12T13:27:48.625Z,29.10
2018-08-12T13:30:18.703Z,29.40
2018-08-12T13:32:48.940Z,29.30
2018-08-12T13:35:18.061Z,29.10
2018-08-12T13:37:47.825Z,29.10
2018-08-12T13:40:17.626Z,29.10
2018-08-12T13:42:47.036Z,29.40
2018-08-12T13:45:16.404Z,29.50
2018-08-12T13:47:46.149Z,29.60
2018-08-12T13:50:19.934Z,29.60
2018-08-12T13:52:50.193Z,29.60
2018-08-12T13:55:19.872Z,29.40
2018-08-12T13:57:49.761Z,29.30
2018-08-12T14:00:21.535Z,29.20
2018-08-12T14:02:50.687Z,29.40
2018-08-12T14:05:20.337Z,29.80
2018-08-12T14:07:50.152Z,30.00
2018-08-12T14:10:19.800Z,30.10
2018-08-12T14:12:48.875Z,30.10
2018-08-12T14:15:18.996Z,30.00
2018-08-12T14:17:48.905Z,29.80
2018-08-12T14:20:20.171Z,29.90
2018-08-12T14:22:50.058Z,30.00
2018-08-12T14:25:19.111Z,30.00
2018-08-12T14:27:48.272Z,29.50
2018-08-12T14:30:19.070Z,29.30
2018-08-12T14:32:48.692Z,29.30
2018-08-12T14:35:17.884Z,29.50
2018-08-12T14:37:47.336Z,29.70
2018-08-12T14:40:16.527Z,29.90
2018-08-12T14:42:45.621Z,30.10
2018-08-12T14:45:15.535Z,30.10
2018-08-12T14:47:45.188Z,30.10
2018-08-12T14:50:17.240Z,30.10
2018-08-12T14:52:46.540Z,30.20
2018-08-12T14:55:17.228Z,30.20
2018-08-12T14:57:46.378Z,30.20
2018-08-12T15:00:17.021Z,30.00
2018-08-12T15:02:47.737Z,29.80
2018-08-12T15:05:17.255Z,29.50
2018-08-12T15:07:46.468Z,29.40
2018-08-12T15:10:15.545Z,29.60
2018-08-12T15:12:45.249Z,29.70
2018-08-12T15:15:15.740Z,29.70
2018-08-12T15:17:45.469Z,29.80
2018-08-12T15:20:15.792Z,29.90
2018-08-12T15:22:45.147Z,29.80
2018-08-12T15:25:17.480Z,29.80
2018-08-12T15:27:46.771Z,29.60
2018-08-12T15:30:15.934Z,29.50
2018-08-12T15:32:45.218Z,29.40
2018-08-12T15:35:14.427Z,29.40
2018-08-12T15:37:43.497Z,29.20
2018-08-12T15:40:13.972Z,29.10
2018-08-12T15:42:43.612Z,29.20
2018-08-12T15:45:15.521Z,29.30
2018-08-12T15:47:45.427Z,29.30
2018-08-12T15:50:14.948Z,29.30
2018-08-12T15:52:45.324Z,29.30
2018-08-12T15:55:14.848Z,29.30
2018-08-12T15:57:43.987Z,29.20
2018-08-12T16:00:16.220Z,29.20
2018-08-12T16:02:45.692Z,29.20
2018-08-12T16:05:14.836Z,29.00
2018-08-12T16:07:44.928Z,29.00
2018-08-12T16:10:17.475Z,29.10
2018-08-12T16:12:47.913Z,29.30
2018-08-12T16:15:17.187Z,29.40
2018-08-12T16:17:46.350Z,29.30
2018-08-12T16:20:15.432Z,29.30
2018-08-12T16:22:44.548Z,29.30
2018-08-12T16:25:16.273Z,29.20
2018-08-12T16:27:45.764Z,29.10
2018-08-12T16:30:17.011Z,29.00
2018-08-12T16:32:46.356Z,29.00
2018-08-12T16:35:16.687Z,29.00
2018-08-12T16:37:46.410Z,28.90
2018-08-12T16:40:17.179Z,29.00
2018-08-12T16:42:47.943Z,28.80
2018-08-12T16:45:17.724Z,28.90
2018-08-12T16:47:47.273Z,28.80
2018-08-12T16:50:17.476Z,28.90
2018-08-12T16:52:47.714Z,28.90
2018-08-12T16:55:18.103Z,29.00
2018-08-12T16:57:47.679Z,29.00
2018-08-12T17:00:18.646Z,29.10
2018-08-12T17:02:48.109Z,29.10
2018-08-12T17:05:19.512Z,29.10
2018-08-12T17:07:48.873Z,29.00
2018-08-12T17:10:18.545Z,28.90
2018-08-12T17:12:47.597Z,28.80
2018-08-12T17:15:19.069Z,28.80
2018-08-12T17:17:48.879Z,28.70
2018-08-12T17:20:19.323Z,28.60
2018-08-12T17:22:48.833Z,28.60
2018-08-12T17:25:18.115Z,28.70
2018-08-12T17:27:47.288Z,28.50
2018-08-12T17:30:17.227Z,28.30
2018-08-12T17:32:46.356Z,28.30
2018-08-12T17:35:15.487Z,28.20
2018-08-12T17:37:45.618Z,28.20
2018-08-12T17:40:16.765Z,28.20
2018-08-12T17:42:45.952Z,28.10
2018-08-12T17:45:15.427Z,28.10
2018-08-12T17:47:44.615Z,27.90
2018-08-12T17:50:15.721Z,27.80
2018-08-12T17:52:45.002Z,27.80
2018-08-12T17:55:14.060Z,27.80
2018-08-12T17:57:43.216Z,27.70
2018-08-12T18:00:15.379Z,27.70
2018-08-12T18:02:45.824Z,27.60
2018-08-12T18:05:15.044Z,27.50
2018-08-12T18:07:44.474Z,27.40
2018-08-12T18:10:14.050Z,27.40
2018-08-12T18:12:43.089Z,27.40
2018-08-12T18:15:12.569Z,27.40
2018-08-12T18:17:42.367Z,27.40
2018-08-12T18:20:11.691Z,27.30
2018-08-12T18:22:40.807Z,27.30
2018-08-12T18:25:11.345Z,27.40
2018-08-12T18:27:40.531Z,27.30
2018-08-12T18:30:12.809Z,27.30
2018-08-12T18:32:41.927Z,27.30
2018-08-12T18:35:11.732Z,27.30
2018-08-12T18:37:41.217Z,27.30
2018-08-12T18:40:11.588Z,27.20
2018-08-12T18:42:40.743Z,27.20
2018-08-12T18:45:09.818Z,27.00
2018-08-12T18:47:40.645Z,27.00
2018-08-12T18:50:11.254Z,26.90
2018-08-12T18:52:40.974Z,26.80
2018-08-12T18:55:11.847Z,26.70
2018-08-12T18:57:40.904Z,26.60
2018-08-12T19:00:12.309Z,26.50
2018-08-12T19:02:41.446Z,26.40
2018-08-12T19:05:11.836Z,26.30
2018-08-12T19:07:42.269Z,26.30
2018-08-12T19:10:12.412Z,26.20
2018-08-12T19:12:42.307Z,26.20
2018-08-12T19:15:12.834Z,26.00
2018-08-12T19:17:41.971Z,26.00
2018-08-12T19:20:11.768Z,25.90
2018-08-12T19:22:40.859Z,25.80
2018-08-12T19:38:14.440Z,25.80
2018-08-12T19:40:43.762Z,25.80
2018-08-12T19:43:13.363Z,25.30
2018-08-12T19:45:43.367Z,25.30
2018-08-12T19:48:12.994Z,25.20
2018-08-12T19:50:42.142Z,25.20
2018-08-12T19:53:11.733Z,25.20
2018-08-12T19:55:41.554Z,25.20
2018-08-12T19:58:10.756Z,25.20
2018-08-12T20:00:40.632Z,25.20
2018-08-12T20:03:09.680Z,25.20
2018-08-12T20:05:40.179Z,25.10
2018-08-12T20:08:09.203Z,25.00
2018-08-12T20:10:38.747Z,25.00
2018-08-12T20:13:07.828Z,25.00
2018-08-12T20:15:36.880Z,25.00
2018-08-12T20:18:06.029Z,25.00
2018-08-12T20:20:35.119Z,24.90
2018-08-12T20:23:04.203Z,24.90
2018-08-12T20:25:33.641Z,24.80
2018-08-12T20:28:03.541Z,24.80
2018-08-12T20:30:32.601Z,24.80
2018-08-12T20:33:01.736Z,24.80
2018-08-12T20:35:30.846Z,24.80
2018-08-12T20:37:59.918Z,24.80
2018-08-12T20:40:29.737Z,24.80
2018-08-12T20:42:58.845Z,24.80
2018-08-12T20:45:29.265Z,24.70
2018-08-12T20:47:58.524Z,24.70
2018-08-12T20:50:29.153Z,24.70
2018-08-12T20:52:58.366Z,24.70
2018-08-12T20:55:27.458Z,24.70
2018-08-12T20:58:00.229Z,24.60
2018-08-12T21:00:29.289Z,24.40
2018-08-12T21:02:58.399Z,24.30
2018-08-12T21:05:27.453Z,24.30
2018-08-12T21:07:56.517Z,24.20
2018-08-12T21:10:25.565Z,24.20
2018-08-12T21:12:54.677Z,24.10
2018-08-12T21:15:24.277Z,24.10
2018-08-12T21:17:53.386Z,24.20
2018-08-12T21:20:23.135Z,24.20
2018-08-12T21:22:52.294Z,24.20
2018-08-12T21:25:21.984Z,24.10
2018-08-12T21:27:51.139Z,24.10
2018-08-12T21:30:20.342Z,24.00
2018-08-12T21:32:49.378Z,24.00
2018-08-12T21:35:18.474Z,23.90
2018-08-12T21:37:48.171Z,23.80
2018-08-12T21:40:17.480Z,23.80
2018-08-12T21:42:46.544Z,23.80
2018-08-12T21:45:15.657Z,23.80
2018-08-12T21:47:44.712Z,23.80
2018-08-12T21:50:13.753Z,23.80
2018-08-12T21:52:42.807Z,23.80
2018-08-12T21:55:11.949Z,23.80
2018-08-12T21:57:41.036Z,23.70
2018-08-12T22:00:13.120Z,23.70
2018-08-12T22:02:42.793Z,23.60
2018-08-12T22:05:11.863Z,23.50
2018-08-12T22:07:40.953Z,23.40
2018-08-12T22:10:13.076Z,23.30
2018-08-12T22:12:42.133Z,23.30
2018-08-12T22:15:11.188Z,23.30
2018-08-12T22:17:40.324Z,23.30
2018-08-12T22:20:09.480Z,23.30
2018-08-12T22:22:38.543Z,23.20
2018-08-12T22:25:07.797Z,23.30
2018-08-12T22:27:36.870Z,23.20
2018-08-12T22:30:10.333Z,23.10
2018-08-12T22:32:40.008Z,23.00
2018-08-12T22:35:09.193Z,22.90
2018-08-12T22:37:38.168Z,22.90
2018-08-12T22:40:13.913Z,23.00
2018-08-12T22:42:43.093Z,23.00
2018-08-12T22:45:12.709Z,23.00
2018-08-12T22:47:42.175Z,23.00
2018-08-12T22:50:11.185Z,23.00
2018-08-12T22:52:40.281Z,23.10
2018-08-12T22:55:10.148Z,23.20
2018-08-12T22:57:39.212Z,23.20
2018-08-12T23:00:10.739Z,23.30
2018-08-12T23:02:39.855Z,23.30
2018-08-12T23:05:08.986Z,23.30
2018-08-12T23:07:38.835Z,23.40
2018-08-12T23:10:09.084Z,23.40
2018-08-12T23:12:38.212Z,23.40
2018-08-12T23:15:18.313Z,23.40
2018-08-12T23:17:47.401Z,23.40
2018-08-12T23:20:16.450Z,23.40
2018-08-12T23:22:47.046Z,23.30
2018-08-12T23:25:16.098Z,23.30
2018-08-12T23:27:45.124Z,23.30
2018-08-12T23:30:14.173Z,23.30
2018-08-12T23:32:43.261Z,23.30
2018-08-12T23:35:12.914Z,23.30
2018-08-12T23:37:41.961Z,23.30
2018-08-12T23:40:11.102Z,23.30
2018-08-12T23:42:40.104Z,23.30
2018-08-12T23:45:09.135Z,23.30
2018-08-12T23:47:38.158Z,23.20
2018-08-12T23:50:07.207Z,23.20
2018-08-12T23:52:36.189Z,23.20
2018-08-12T23:55:05.693Z,23.20
2018-08-12T23:57:34.672Z,23.20
